Time;durP1;ratioP1;P1;durP2;ratioP2;P2;SDS_P1;SDS_P2;PMS_P1;PMS_P2;Temp;Humidity;BMP_temperature;BMP_pressure;BME280_temperature;BME280_humidity;BME280_pressure;Samples;Min_cycle;Max_cycle;Signal;HPM_P1;HPM_P2
2021/10/03 00:00:19;;;;;;;4.50;2.80;;;18.20;99.90;;;19.18;82.97;98811.75;6127880;23;19998;-85
2021/10/03 00:02:50;;;;;;;4.03;2.67;;;18.30;99.90;;;19.13;83.88;98811.53;6115006;23;20002;-87
2021/10/03 00:05:20;;;;;;;4.32;2.53;;;18.30;99.90;;;19.16;83.48;98802.94;6112465;23;20002;-87
2021/10/03 00:07:59;;;;;;;4.18;2.33;;;18.30;99.90;;;19.16;83.83;98797.28;6117125;23;20006;-87
2021/10/03 00:10:29;;;;;;;6.93;3.05;;;18.20;99.90;;;19.09;84.05;98796.72;6116194;23;20002;-88
2021/10/03 00:13:02;;;;;;;4.18;3.13;;;18.20;99.90;;;19.24;82.96;98792.13;6114345;23;20013;-90
2021/10/03 00:15:32;;;;;;;4.47;2.75;;;18.20;99.90;;;19.23;83.47;98807.53;6120122;23;20013;-89
2021/10/03 00:17:59;;;;;;;3.65;2.92;;;18.20;99.90;;;19.17;83.45;98817.88;6120089;23;20006;-87
2021/10/03 00:20:26;;;;;;;4.88;2.50;;;18.20;99.90;;;19.07;84.32;98814.16;6114440;23;20017;-89
2021/10/03 00:22:52;;;;;;;3.38;2.78;;;18.10;99.90;;;19.14;83.57;98798.97;6133308;23;20025;-91
2021/10/03 00:25:43;;;;;;;4.65;2.95;;;18.20;99.90;;;19.17;84.05;98801.66;6131948;23;20060;-88
2021/10/03 00:28:10;;;;;;;3.88;2.38;;;18.10;99.90;;;19.03;84.98;98813.50;6106779;23;20005;-89
2021/10/03 00:30:41;;;;;;;3.05;2.75;;;18.10;99.90;;;19.05;84.91;98808.19;6108158;23;20017;-87
2021/10/03 00:33:07;;;;;;;4.13;2.60;;;18.10;99.90;;;18.97;86.05;98812.53;6107217;23;20010;-88
2021/10/03 00:35:35;;;;;;;3.53;2.40;;;18.00;99.90;;;18.90;85.89;98810.75;6106339;23;20014;-87
2021/10/03 00:38:07;;;;;;;3.05;2.20;;;18.00;99.90;;;18.91;86.68;98817.19;6105737;23;20013;-86
2021/10/03 00:40:38;;;;;;;3.78;2.22;;;18.00;99.90;;;18.77;88.79;98814.84;6105725;23;20093;-89
2021/10/03 00:43:08;;;;;;;7.35;2.80;;;17.90;99.90;;;18.71;88.26;98819.50;6104471;23;20006;-89
2021/10/03 00:45:35;;;;;;;4.45;2.88;;;17.90;99.90;;;18.66;89.88;98818.03;6130151;23;20006;-87
2021/10/03 00:48:01;;;;;;;5.03;3.15;;;17.80;99.90;;;18.56;90.81;98815.59;6106721;23;20340;-91
2021/10/03 00:50:28;;;;;;;4.05;2.40;;;17.60;99.90;;;18.55;91.47;98822.50;6132440;23;20077;-91
2021/10/03 00:52:57;;;;;;;8.15;3.13;;;17.50;99.90;;;18.39;93.37;98812.91;6131157;23;20006;-89
2021/10/03 00:55:24;;;;;;;3.28;2.55;;;17.40;99.90;;;18.33;94.08;98816.75;6107127;23;20096;-87
2021/10/03 00:57:52;;;;;;;5.22;3.03;;;17.30;99.90;;;18.29;94.55;98814.03;6134969;23;20073;-89
2021/10/03 01:00:29;;;;;;;5.63;2.78;;;17.30;99.90;;;18.16;95.71;98815.28;6106840;23;20024;-89
2021/10/03 01:02:57;;;;;;;4.75;2.90;;;17.20;99.90;;;18.12;96.37;98820.25;6103587;23;20061;-89
2021/10/03 01:05:24;;;;;;;3.78;2.47;;;17.10;99.90;;;18.03;97.30;98826.59;6103764;23;20009;-88
2021/10/03 01:07:52;;;;;;;4.57;2.55;;;17.10;99.90;;;17.94;97.02;98812.38;6129580;23;20002;-88
2021/10/03 01:10:24;;;;;;;5.25;3.00;;;17.00;99.90;;;17.90;98.04;98817.34;6103685;23;20001;-88
2021/10/03 01:13:04;;;;;;;4.70;2.55;;;17.00;99.90;;;17.89;98.41;98816.53;6103344;23;20006;-89
2021/10/03 01:15:38;;;;;;;3.88;2.75;;;17.00;99.90;;;17.92;98.16;98811.25;6128956;23;20389;-88
2021/10/03 01:18:06;;;;;;;5.18;2.90;;;17.00;99.90;;;17.94;98.73;98818.03;6103345;23;20010;-89
2021/10/03 01:20:34;;;;;;;4.97;2.60;;;16.90;99.90;;;17.90;99.23;98818.13;6103534;23;20018;-88
2021/10/03 01:23:03;;;;;;;4.00;2.90;;;16.90;99.90;;;17.82;99.90;98819.56;6103630;23;20006;-88
2021/10/03 01:25:41;;;;;;;4.53;2.42;;;16.90;99.90;;;17.82;99.11;98807.50;6129423;23;20436;-87
2021/10/03 01:28:09;;;;;;;4.00;2.50;;;16.80;99.90;;;17.86;99.24;98813.81;6131580;23;20033;-90
2021/10/03 01:30:42;;;;;;;3.72;2.53;;;16.80;99.90;;;17.85;99.69;98821.50;6108428;23;20651;-87
2021/10/03 01:33:08;;;;;;;7.88;2.80;;;16.80;99.90;;;17.80;99.96;98816.44;6103524;23;20009;-86
2021/10/03 01:35:35;;;;;;;3.53;2.63;;;16.80;99.90;;;17.78;99.19;98807.63;6103841;23;20016;-87
2021/10/03 01:38:02;;;;;;;8.23;3.05;;;16.80;99.90;;;17.84;99.07;98807.84;6103712;23;20467;-91
2021/10/03 01:40:29;;;;;;;4.82;2.95;;;16.90;99.90;;;17.87;97.71;98807.75;6102873;23;20018;-90
2021/10/03 01:42:57;;;;;;;4.07;2.42;;;16.90;99.90;;;17.92;97.65;98814.84;6129485;23;20010;-89
2021/10/03 01:45:25;;;;;;;5.18;2.78;;;16.90;99.90;;;17.92;97.99;98803.53;6102552;23;20020;-88
2021/10/03 01:48:10;;;;;;;5.80;2.53;;;17.00;99.90;;;18.02;96.40;98804.44;6102990;23;20085;-89
2021/10/03 01:50:48;;;;;;;4.10;2.37;;;17.00;99.90;;;18.06;95.83;98805.13;6102542;23;20005;-87
2021/10/03 01:53:26;;;;;;;5.53;2.85;;;16.90;99.90;;;18.03;94.87;98803.22;6129300;23;20021;-87
2021/10/03 01:55:55;;;;;;;2.47;2.15;;;17.00;99.90;;;18.10;94.44;98811.47;6102975;23;20040;-89
2021/10/03 01:58:28;;;;;;;2.97;1.95;;;17.00;99.90;;;18.17;94.14;98820.47;6126849;23;20037;-90
2021/10/03 02:01:04;;;;;;;6.20;2.50;;;17.20;99.90;;;18.24;93.28;98825.91;6127727;23;20053;-88
2021/10/03 02:03:30;;;;;;;3.10;2.30;;;17.20;99.90;;;18.28;92.07;98803.97;6103084;23;20005;-88
2021/10/03 02:05:57;;;;;;;5.93;2.47;;;17.30;99.90;;;18.33;91.74;98803.38;6104825;23;20010;-88
2021/10/03 02:08:23;;;;;;;4.05;2.58;;;17.40;99.90;;;18.39;91.11;98803.63;6103908;23;20013;-88
2021/10/03 02:10:52;;;;;;;8.45;2.60;;;17.40;99.90;;;18.42;90.53;98802.72;6103558;23;20037;-89
2021/10/03 02:13:23;;;;;;;3.08;2.10;;;17.40;99.90;;;18.38;90.79;98802.03;6102439;23;20014;-87
2021/10/03 02:15:51;;;;;;;3.00;2.13;;;17.50;99.90;;;18.48;90.72;98811.41;6102921;23;20014;-87
2021/10/03 02:18:20;;;;;;;5.55;2.35;;;17.40;99.90;;;18.49;89.98;98787.53;6102657;23;20207;-88
2021/10/03 02:20:54;;;;;;;4.78;2.25;;;17.50;99.90;;;18.49;89.30;98787.53;6102046;23;20010;-88
2021/10/03 02:23:20;;;;;;;5.03;2.40;;;17.40;99.90;;;18.48;90.07;98792.41;6101951;23;20093;-88
2021/10/03 02:25:47;;;;;;;3.70;2.35;;;17.40;99.90;;;18.42;89.87;98786.53;6101827;23;20010;-87
2021/10/03 02:28:25;;;;;;;4.63;2.30;;;17.40;99.90;;;18.45;89.21;98784.84;6101883;23;20463;-89
2021/10/03 02:30:59;;;;;;;5.00;1.90;;;17.50;99.90;;;18.49;89.00;98779.84;6102227;23;20433;-89
2021/10/03 02:33:26;;;;;;;4.60;2.20;;;17.50;99.90;;;18.48;88.53;98781.09;6101354;23;20061;-87
2021/10/03 02:35:56;;;;;;;4.03;2.28;;;17.50;99.90;;;18.55;87.99;98778.06;6101655;23;20010;-87
2021/10/03 02:38:26;;;;;;;3.75;1.90;;;17.50;99.90;;;18.52;87.63;98786.66;6101857;23;20455;-89
2021/10/03 02:40:56;;;;;;;4.60;1.95;;;17.50;99.90;;;18.57;87.18;98777.59;6101574;23;20049;-89
2021/10/03 02:43:28;;;;;;;4.32;2.30;;;17.60;99.90;;;18.51;87.71;98765.28;6124638;23;20016;-87
2021/10/03 02:45:57;;;;;;;4.60;2.60;;;17.60;99.90;;;18.54;87.62;98767.19;6100271;23;20006;-87
2021/10/03 02:48:29;;;;;;;5.13;2.58;;;17.60;99.90;;;18.48;88.25;98769.00;6101737;23;20005;-89
2021/10/03 02:50:56;;;;;;;4.43;2.45;;;17.50;99.90;;;18.57;87.22;98746.50;6103207;23;20017;-88
2021/10/03 02:53:24;;;;;;;3.35;1.90;;;17.60;99.90;;;18.47;87.22;98761.75;6129189;23;20006;-88
2021/10/03 02:55:53;;;;;;;5.63;2.30;;;17.60;99.90;;;18.65;86.50;98759.13;6103145;23;20010;-87
2021/10/03 02:58:22;;;;;;;3.35;2.10;;;17.70;99.90;;;18.64;85.87;98772.47;6103239;23;20449;-88
2021/10/03 03:00:54;;;;;;;4.15;2.30;;;17.60;99.90;;;18.65;86.02;98754.28;6102422;23;20078;-88
2021/10/03 03:03:20;;;;;;;4.93;2.10;;;17.70;99.90;;;18.71;85.16;98740.34;6127294;23;20010;-90
2021/10/03 03:05:46;;;;;;;4.13;2.25;;;17.70;99.90;;;18.67;85.50;98753.81;6103034;23;20061;-88
2021/10/03 03:08:12;;;;;;;2.63;1.85;;;17.70;99.90;;;18.82;84.80;98750.00;6103203;23;20006;-87
2021/10/03 03:10:38;;;;;;;3.70;1.95;;;17.70;99.90;;;18.76;84.90;98751.84;6102342;23;20006;-90
2021/10/03 03:13:04;;;;;;;3.35;2.17;;;17.80;99.90;;;18.73;85.74;98743.50;6102671;23;20021;-90
2021/10/03 03:15:30;;;;;;;5.13;1.92;;;17.70;99.90;;;18.65;86.81;98742.19;6103231;23;20009;-90
2021/10/03 03:17:56;;;;;;;3.67;2.10;;;17.70;99.90;;;18.54;87.05;98745.38;6104589;23;20344;-90
2021/10/03 03:20:22;;;;;;;2.65;2.03;;;17.60;99.90;;;18.48;87.85;98746.38;6103029;23;20085;-90
2021/10/03 03:22:49;;;;;;;4.78;2.28;;;17.50;99.90;;;18.39;88.47;98745.06;6129381;23;20017;-89
2021/10/03 03:25:16;;;;;;;2.70;2.15;;;17.40;99.90;;;18.26;89.83;98754.81;6103831;23;20029;-90
2021/10/03 03:27:43;;;;;;;3.53;2.40;;;17.30;99.90;;;18.33;89.98;98746.09;6129763;23;20010;-90
2021/10/03 03:30:13;;;;;;;5.40;2.35;;;17.30;99.90;;;18.29;90.47;98756.72;6129875;23;20005;-88
2021/10/03 03:32:40;;;;;;;3.10;2.10;;;17.20;99.90;;;18.22;91.72;98749.28;6104603;23;20054;-88
2021/10/03 03:35:09;;;;;;;4.35;2.65;;;17.20;99.90;;;18.11;92.15;98748.06;6132384;23;20009;-88
2021/10/03 03:37:36;;;;;;;8.60;2.13;;;17.10;99.90;;;18.06;93.12;98757.91;6105634;23;20036;-87
2021/10/03 03:40:08;;;;;;;4.28;2.10;;;17.00;99.90;;;17.99;94.24;98746.03;6106276;23;20013;-88
2021/10/03 03:42:34;;;;;;;5.28;2.45;;;16.90;99.90;;;17.87;95.13;98756.09;6106546;23;20017;-91
2021/10/03 03:44:59;;;;;;;5.18;2.60;;;16.90;99.90;;;17.73;96.30;98757.34;6106956;23;20010;-87
2021/10/03 03:47:25;;;;;;;3.80;2.80;;;16.80;99.90;;;17.71;95.22;98764.69;6103618;23;20017;-86
2021/10/03 03:49:51;;;;;;;5.20;2.88;;;16.80;99.90;;;17.58;96.95;98750.59;6104006;23;20013;-87
2021/10/03 03:52:21;;;;;;;4.80;2.63;;;16.70;99.90;;;17.64;97.42;98745.94;6109023;23;20017;-88
2021/10/03 03:54:47;;;;;;;5.63;3.10;;;16.70;99.90;;;17.53;98.93;98753.91;6104343;23;20096;-87
2021/10/03 03:57:14;;;;;;;3.78;3.00;;;16.60;99.90;;;17.45;98.81;98763.06;6103469;23;20446;-88
2021/10/03 03:59:40;;;;;;;4.82;2.83;;;16.50;99.90;;;17.47;99.81;98752.09;6102257;23;20061;-88
2021/10/03 04:02:07;;;;;;;3.40;2.63;;;16.50;99.90;;;17.46;99.93;98748.53;6103089;23;20006;-89
2021/10/03 04:04:33;;;;;;;7.63;3.42;;;16.50;99.90;;;17.41;100.00;98754.69;6102612;23;20009;-87
2021/10/03 04:06:59;;;;;;;6.43;3.42;;;16.40;99.90;;;17.37;100.00;98760.44;6102982;23;20050;-86
2021/10/03 04:09:25;;;;;;;8.23;3.38;;;16.40;99.90;;;17.30;100.00;98754.25;6103317;23;20057;-89
2021/10/03 04:11:50;;;;;;;4.85;3.10;;;16.40;99.90;;;17.29;100.00;98756.28;6103356;23;20010;-88
2021/10/03 04:14:16;;;;;;;3.63;3.17;;;16.40;99.90;;;17.43;100.00;98759.91;6102890;23;20035;-89
2021/10/03 04:16:42;;;;;;;6.13;3.55;;;16.40;99.90;;;17.36;100.00;98758.09;6104135;23;20010;-88
2021/10/03 04:19:08;;;;;;;8.35;4.22;;;16.30;99.90;;;17.30;100.00;98742.97;6129545;23;20407;-87
2021/10/03 04:21:34;;;;;;;6.38;4.15;;;16.40;99.90;;;17.23;100.00;98738.34;6129221;23;20481;-87
2021/10/03 04:24:00;;;;;;;7.78;4.30;;;16.20;99.90;;;17.23;100.00;98741.16;6128584;23;20017;-89
2021/10/03 04:26:28;;;;;;;5.75;4.40;;;16.30;99.90;;;17.22;100.00;98759.31;6103756;23;20017;-87
2021/10/03 04:28:55;;;;;;;6.53;4.40;;;16.20;99.90;;;17.19;100.00;98746.09;6103587;23;20057;-89
2021/10/03 04:31:21;;;;;;;5.78;3.92;;;16.20;99.90;;;17.23;100.00;98743.97;6103891;23;20108;-89
2021/10/03 04:33:47;;;;;;;7.80;4.45;;;16.20;99.90;;;17.19;100.00;98751.75;6103631;23;20017;-86
2021/10/03 04:36:13;;;;;;;8.05;4.82;;;16.30;99.90;;;17.20;100.00;98753.34;6105677;23;20006;-87
2021/10/03 04:38:40;;;;;;;9.18;4.35;;;16.20;99.90;;;17.17;100.00;98744.97;6105326;23;20460;-88
2021/10/03 04:41:07;;;;;;;8.52;4.55;;;16.20;99.90;;;17.25;100.00;98746.31;6105557;23;20010;-89
2021/10/03 04:43:33;;;;;;;7.65;4.38;;;16.20;99.90;;;17.12;100.00;98753.97;6105569;23;20013;-88
2021/10/03 04:45:59;;;;;;;6.93;4.60;;;16.20;99.90;;;17.22;100.00;98750.03;6103990;23;20432;-89
2021/10/03 04:48:25;;;;;;;6.55;4.50;;;16.20;99.90;;;17.26;100.00;98745.09;6129670;23;20432;-89
2021/10/03 04:50:51;;;;;;;6.43;4.78;;;16.20;99.90;;;17.21;100.00;98749.25;6104908;23;20010;-89
2021/10/03 04:53:17;;;;;;;5.80;4.60;;;16.20;99.90;;;17.23;100.00;98749.63;6104310;23;20006;-89
2021/10/03 04:55:43;;;;;;;7.75;4.65;;;16.20;99.90;;;17.21;100.00;98737.19;6105033;23;20010;-87
2021/10/03 04:58:10;;;;;;;9.77;5.10;;;16.20;99.90;;;17.16;100.00;98749.81;6106009;23;20033;-87
2021/10/03 05:00:36;;;;;;;8.50;5.32;;;16.10;99.90;;;17.17;100.00;98740.13;6104898;23;20041;-90
2021/10/03 05:03:02;;;;;;;8.23;5.28;;;16.10;99.90;;;17.12;100.00;98737.84;6103958;23;20456;-88
2021/10/03 05:05:27;;;;;;;8.18;5.50;;;16.10;99.90;;;17.09;100.00;98733.09;6102688;23;20337;-87
2021/10/03 05:07:53;;;;;;;8.48;4.82;;;16.10;99.90;;;17.15;100.00;98736.16;6103853;23;20013;-91
2021/10/03 05:10:20;;;;;;;8.50;5.60;;;16.10;99.90;;;17.18;100.00;98732.44;6104824;23;20013;-87
2021/10/03 05:12:46;;;;;;;10.07;5.75;;;16.00;99.90;;;17.12;100.00;98726.56;6103763;23;20009;-88
2021/10/03 05:15:12;;;;;;;11.85;5.80;;;16.00;99.90;;;17.17;100.00;98722.41;6103435;23;20021;-91
2021/10/03 05:17:38;;;;;;;7.47;5.65;;;16.10;99.90;;;17.02;100.00;98716.38;6127940;23;20013;-89
2021/10/03 05:20:05;;;;;;;10.70;6.03;;;16.00;99.90;;;17.08;100.00;98725.88;6128485;23;20021;-89
2021/10/03 05:22:32;;;;;;;7.82;6.13;;;16.00;99.90;;;17.13;100.00;98727.34;6102901;23;20464;-89
2021/10/03 05:24:58;;;;;;;7.85;5.50;;;16.10;99.90;;;17.13;100.00;98736.63;6104393;23;20017;-90
2021/10/03 05:27:25;;;;;;;8.48;5.82;;;16.10;99.90;;;17.13;100.00;98722.50;6104082;23;20006;-89
2021/10/03 05:29:51;;;;;;;10.00;5.95;;;16.10;99.90;;;17.20;100.00;98721.50;6103218;23;20005;-89
2021/10/03 05:32:16;;;;;;;8.48;5.38;;;16.00;99.90;;;17.14;100.00;98724.09;6129595;23;20014;-90
2021/10/03 05:34:42;;;;;;;7.60;5.70;;;16.00;99.90;;;17.11;100.00;98718.56;6103856;23;20441;-89
2021/10/03 05:37:08;;;;;;;9.73;6.20;;;16.10;99.90;;;17.17;100.00;98720.38;6132619;23;20020;-89
2021/10/03 05:39:34;;;;;;;14.35;6.35;;;16.10;99.90;;;17.13;100.00;98721.72;6106689;23;20010;-90
2021/10/03 05:42:00;;;;;;;10.57;6.90;;;16.10;99.90;;;17.18;100.00;98724.75;6130899;23;20017;-88
2021/10/03 05:44:27;;;;;;;10.40;6.30;;;16.10;99.90;;;17.17;100.00;98720.38;6132240;23;20012;-91
2021/10/03 05:46:53;;;;;;;8.32;6.53;;;16.10;99.90;;;17.11;100.00;98727.03;6140099;23;20010;-88
2021/10/03 05:49:19;;;;;;;11.00;6.53;;;16.10;99.90;;;17.14;100.00;98714.84;6140218;23;20089;-92
2021/10/03 05:51:45;;;;;;;8.98;6.63;;;16.10;99.90;;;17.18;100.00;98719.13;6139461;23;20105;-89
2021/10/03 05:54:11;;;;;;;9.40;6.13;;;16.00;99.90;;;17.21;100.00;98712.59;6129796;23;20439;-90
2021/10/03 05:56:37;;;;;;;8.93;6.03;;;16.10;99.90;;;17.24;100.00;98722.19;6105652;23;20507;-89
2021/10/03 05:59:05;;;;;;;12.43;6.78;;;16.10;99.90;;;17.22;100.00;98724.66;6129609;23;20060;-90
2021/10/03 06:01:31;;;;;;;9.10;6.43;;;16.10;99.90;;;17.27;100.00;98716.41;6130756;23;20005;-88
2021/10/03 06:03:57;;;;;;;10.05;6.03;;;16.10;99.90;;;17.25;100.00;98713.28;6129068;23;20010;-89
2021/10/03 06:06:23;;;;;;;8.60;6.70;;;16.20;99.90;;;17.26;100.00;98716.88;6128905;23;20336;-88
2021/10/03 06:08:48;;;;;;;12.75;7.15;;;16.10;99.90;;;17.21;100.00;98720.28;6104007;23;20006;-91
2021/10/03 06:11:15;;;;;;;8.82;6.47;;;16.10;99.90;;;17.27;100.00;98724.88;6127407;23;20006;-88
2021/10/03 06:13:41;;;;;;;10.73;6.80;;;16.10;99.90;;;17.28;100.00;98722.84;6105156;23;20006;-88
2021/10/03 06:16:08;;;;;;;10.63;6.28;;;16.20;99.90;;;17.30;100.00;98717.56;6133976;23;20010;-91
2021/10/03 06:18:34;;;;;;;8.10;6.25;;;16.10;99.90;;;17.32;100.00;98720.72;6129972;23;20068;-89
2021/10/03 06:21:00;;;;;;;9.95;6.65;;;16.20;99.90;;;17.33;100.00;98722.31;6131126;23;20010;-89
2021/10/03 06:23:26;;;;;;;9.57;6.97;;;16.20;99.90;;;17.33;100.00;98722.31;6107269;23;20081;-88
2021/10/03 06:25:52;;;;;;;10.90;6.40;;;16.30;99.90;;;17.45;100.00;98715.09;6106941;23;20021;-90
2021/10/03 06:28:18;;;;;;;18.35;6.72;;;16.40;99.90;;;17.48;100.00;98708.53;6131944;23;20006;-89
2021/10/03 06:30:44;;;;;;;10.77;6.72;;;16.30;99.90;;;17.45;100.00;98706.63;6129813;23;20009;-87
2021/10/03 06:33:10;;;;;;;9.00;5.80;;;16.40;99.90;;;17.63;100.00;98704.84;6129868;23;20093;-87
2021/10/03 06:35:35;;;;;;;7.43;6.05;;;16.50;99.90;;;17.62;100.00;98705.31;6129448;23;20009;-91
2021/10/03 06:38:02;;;;;;;8.57;6.03;;;16.50;99.90;;;17.63;100.00;98706.88;6105213;23;20056;-90
2021/10/03 06:40:28;;;;;;;8.73;6.53;;;16.50;99.90;;;17.65;100.00;98705.19;6105132;23;20336;-89
2021/10/03 06:42:54;;;;;;;9.55;6.10;;;16.50;99.90;;;17.68;100.00;98701.47;6105370;23;20006;-88
2021/10/03 06:45:21;;;;;;;12.07;6.63;;;16.60;99.90;;;17.72;100.00;98698.53;6105179;23;20010;-89
2021/10/03 06:47:47;;;;;;;10.85;5.90;;;16.50;99.90;;;17.77;100.00;98710.03;6130288;23;20005;-88
2021/10/03 06:50:13;;;;;;;11.40;5.72;;;16.70;99.90;;;17.79;100.00;98707.53;6129581;23;20006;-90
2021/10/03 06:52:40;;;;;;;7.40;5.78;;;16.70;99.90;;;17.83;100.00;98705.41;6130068;23;20440;-88
2021/10/03 06:55:07;;;;;;;12.23;6.38;;;16.60;99.90;;;17.92;100.00;98707.53;6128333;23;20459;-91
2021/10/03 06:57:33;;;;;;;7.70;5.85;;;16.70;99.90;;;17.98;100.00;98713.41;6131212;23;20012;-90
2021/10/03 06:59:59;;;;;;;9.20;5.80;;;16.70;99.90;;;17.92;100.00;98708.31;6105456;23;20014;-87
2021/10/03 07:02:30;;;;;;;12.13;6.18;;;16.70;99.90;;;17.95;100.00;98719.97;6131133;23;20333;-88
2021/10/03 07:04:56;;;;;;;8.10;5.55;;;16.70;99.90;;;18.04;100.00;98720.84;6129834;23;20010;-90
2021/10/03 07:07:23;;;;;;;9.10;5.85;;;16.80;99.90;;;17.98;100.00;98725.47;6105835;23;20010;-89
2021/10/03 07:09:50;;;;;;;9.85;6.18;;;16.70;99.90;;;17.97;100.00;98725.94;6129767;23;20111;-88
2021/10/03 07:12:17;;;;;;;11.15;6.13;;;16.80;99.90;;;17.94;100.00;98727.66;6105572;23;20073;-89
2021/10/03 07:14:43;;;;;;;11.73;6.35;;;16.80;99.90;;;18.03;99.96;98721.28;6130656;23;20057;-90
2021/10/03 07:17:12;;;;;;;7.78;5.68;;;16.90;99.90;;;18.06;99.13;98735.31;6106481;23;20495;-87
2021/10/03 07:19:39;;;;;;;10.07;6.03;;;17.00;99.90;;;18.23;98.54;98738.78;6107198;23;20091;-89
2021/10/03 07:22:07;;;;;;;7.53;5.60;;;17.00;99.90;;;18.09;98.93;98740.03;6106649;23;20009;-89
2021/10/03 07:24:34;;;;;;;7.82;5.85;;;17.10;99.90;;;18.11;99.50;98740.38;6131903;23;20013;-88
2021/10/03 07:27:01;;;;;;;7.78;5.50;;;17.10;99.90;;;18.16;97.79;98730.53;6105175;23;20077;-91
2021/10/03 07:29:28;;;;;;;10.77;5.85;;;17.10;99.90;;;18.23;98.71;98736.75;6104945;23;20005;-88
2021/10/03 07:31:54;;;;;;;10.05;5.32;;;17.10;99.90;;;18.17;99.42;98732.88;6129185;23;20017;-90
2021/10/03 07:34:21;;;;;;;11.13;5.03;;;17.10;99.90;;;18.21;98.65;98744.06;6129219;23;20014;-89
2021/10/03 07:36:47;;;;;;;8.43;5.85;;;17.20;99.90;;;18.29;98.46;98745.44;6130956;23;20021;-90
2021/10/03 07:39:13;;;;;;;8.50;5.43;;;17.30;99.90;;;18.35;97.73;98754.91;6106263;23;20010;-89
2021/10/03 07:41:39;;;;;;;7.90;5.63;;;17.20;99.90;;;18.30;98.91;98742.13;6132861;23;20031;-89
2021/10/03 07:44:05;;;;;;;9.15;5.22;;;17.30;99.90;;;18.35;98.39;98752.06;6106447;23;20010;-88
2021/10/03 07:47:11;;;;;;;13.52;5.85;;;17.30;99.90;;;18.33;98.76;98748.94;6105480;23;20052;-89
2021/10/03 07:49:37;;;;;;;7.45;4.95;;;17.30;99.90;;;18.40;98.21;98765.63;6129922;23;20441;-89
2021/10/03 07:52:04;;;;;;;9.98;5.25;;;17.40;99.90;;;18.27;99.50;98770.50;6129490;23;19998;-91
2021/10/03 07:54:30;;;;;;;8.60;5.38;;;17.40;99.90;;;18.30;99.41;98767.56;6103668;23;20006;-91
2021/10/03 07:56:56;;;;;;;8.55;5.47;;;17.40;99.90;;;18.25;99.44;98765.31;6104829;23;20020;-90
2021/10/03 07:59:22;;;;;;;8.27;5.72;;;17.30;99.90;;;18.25;100.00;98773.81;6103438;23;20424;-90
2021/10/03 08:01:47;;;;;;;8.05;5.45;;;17.20;99.90;;;18.07;100.00;98770.00;6105478;23;20348;-90
2021/10/03 08:04:13;;;;;;;10.43;5.55;;;17.20;99.90;;;18.13;100.00;98766.16;6128395;23;20439;-89
2021/10/03 08:06:39;;;;;;;10.50;6.05;;;17.10;99.90;;;18.18;100.00;98784.53;6128768;23;20528;-88
2021/10/03 08:09:05;;;;;;;9.35;5.82;;;17.10;99.90;;;18.08;99.93;98766.69;6129523;23;20059;-88
2021/10/03 08:11:31;;;;;;;6.22;4.97;;;17.10;99.90;;;18.13;100.00;98773.81;6134988;23;20054;-90
2021/10/03 08:13:57;;;;;;;7.70;5.28;;;17.10;99.90;;;18.14;100.00;98781.06;6104846;23;20344;-90
2021/10/03 08:16:23;;;;;;;7.38;4.97;;;17.10;99.90;;;17.98;100.00;98773.47;6103622;23;20010;-90
2021/10/03 08:18:50;;;;;;;9.65;5.40;;;17.10;99.90;;;18.01;100.00;98778.25;6103047;23;20568;-90
2021/10/03 08:21:18;;;;;;;6.28;5.40;;;17.10;99.90;;;17.91;100.00;98782.22;6127774;23;20093;-89
2021/10/03 08:23:44;;;;;;;8.75;5.45;;;17.10;99.90;;;18.07;100.00;98784.13;6127771;23;20017;-91
2021/10/03 08:26:10;;;;;;;7.47;5.05;;;17.10;99.90;;;18.02;100.00;98791.13;6103824;23;20014;-89
2021/10/03 08:28:36;;;;;;;8.27;5.30;;;17.10;99.90;;;17.92;100.00;98793.03;6103635;23;20085;-90
2021/10/03 08:31:02;;;;;;;10.40;5.40;;;17.10;99.90;;;17.90;100.00;98789.88;6105360;23;20028;-91
2021/10/03 08:33:28;;;;;;;9.18;5.30;;;17.00;99.90;;;17.89;100.00;98807.28;6130756;23;20010;-88
2021/10/03 08:35:54;;;;;;;8.60;5.63;;;17.00;99.90;;;17.87;100.00;98785.16;6106059;23;20249;-87
2021/10/03 08:38:20;;;;;;;7.72;5.60;;;17.00;99.90;;;17.89;100.00;98798.78;6112505;23;20014;-91
2021/10/03 08:40:46;;;;;;;8.20;5.07;;;17.00;99.90;;;17.87;100.00;98796.44;6128791;23;20017;-88
2021/10/03 08:43:11;;;;;;;7.40;5.10;;;17.00;99.90;;;17.93;100.00;98799.47;6104712;23;20014;-88
2021/10/03 08:45:45;;;;;;;8.25;5.60;;;17.00;99.90;;;17.88;100.00;98802.88;6102834;23;20100;-92
2021/10/03 08:48:16;;;;;;;10.32;5.72;;;17.00;99.90;;;17.91;100.00;98807.63;6103581;23;20013;-88
2021/10/03 08:50:46;;;;;;;7.32;5.18;;;17.00;99.90;;;17.90;100.00;98791.91;6128984;23;20010;-90
2021/10/03 08:53:21;;;;;;;7.80;5.45;;;17.00;99.90;;;17.99;100.00;98803.31;6104445;23;20336;-90
2021/10/03 08:55:49;;;;;;;8.52;5.93;;;17.00;99.90;;;18.00;100.00;98787.97;6128620;23;20415;-88
2021/10/03 08:58:15;;;;;;;8.90;5.47;;;17.10;99.90;;;17.95;100.00;98790.56;6130593;23;20013;-89
2021/10/03 09:00:50;;;;;;;6.60;5.32;;;17.10;99.90;;;17.91;100.00;98804.81;6105067;23;20017;-88
2021/10/03 09:03:18;;;;;;;6.28;5.07;;;17.00;99.90;;;17.96;100.00;98800.59;6105246;23;20012;-89
2021/10/03 09:05:57;;;;;;;6.57;5.20;;;17.00;99.90;;;17.89;100.00;98790.31;6130623;23;20013;-90
2021/10/03 09:08:28;;;;;;;6.47;4.97;;;17.00;99.90;;;17.95;100.00;98788.50;6130487;23;20006;-88
2021/10/03 09:11:06;;;;;;;8.70;5.43;;;17.00;99.90;;;17.96;100.00;98798.56;6132366;23;20076;-88
2021/10/03 09:13:32;;;;;;;9.15;5.88;;;17.00;99.90;;;17.95;100.00;98799.03;6106611;23;20318;-91
2021/10/03 09:16:13;;;;;;;8.65;5.45;;;17.00;99.90;;;17.94;100.00;98794.63;6104669;23;20014;-88
2021/10/03 09:18:56;;;;;;;6.80;5.10;;;17.00;99.90;;;17.88;100.00;98808.53;6104054;23;20021;-93
2021/10/03 09:21:36;;;;;;;6.13;5.22;;;17.00;99.90;;;17.97;100.00;98796.53;6103903;23;20350;-90
2021/10/03 09:24:14;;;;;;;9.52;6.03;;;17.10;99.90;;;17.86;100.00;98794.06;6126950;23;20432;-90
2021/10/03 09:27:05;;;;;;;10.20;5.05;;;17.00;99.90;;;17.90;100.00;98811.69;6103645;23;20049;-90
2021/10/03 09:29:37;;;;;;;7.78;5.63;;;17.00;99.90;;;18.03;100.00;98795.53;6129993;23;20013;-88
2021/10/03 09:32:18;;;;;;;8.20;5.45;;;17.00;99.90;;;17.92;100.00;98809.19;6129959;23;20095;-90
2021/10/03 09:34:53;;;;;;;7.20;5.15;;;17.00;99.90;;;17.92;100.00;98809.19;6127754;23;20081;-90
2021/10/03 09:37:32;;;;;;;12.30;5.55;;;17.00;99.90;;;17.89;100.00;98824.22;6101483;23;20009;-90
2021/10/03 09:40:13;;;;;;;7.82;5.30;;;17.00;99.90;;;18.07;100.00;98813.16;6126316;23;20017;-93
2021/10/03 09:42:51;;;;;;;9.57;5.18;;;17.00;99.90;;;18.11;100.00;98819.47;6101174;23;20455;-91
2021/10/03 09:45:21;;;;;;;6.90;4.70;;;17.00;99.90;;;18.06;100.00;98834.16;6101448;23;20013;-91
2021/10/03 09:48:04;;;;;;;10.70;5.32;;;17.10;99.90;;;18.05;100.00;98824.09;6101919;23;20500;-91
2021/10/03 09:50:39;;;;;;;6.70;4.95;;;17.10;99.90;;;18.07;100.00;98813.16;6125808;23;20006;-93
2021/10/03 09:53:05;;;;;;;6.05;4.65;;;17.10;99.90;;;18.15;100.00;98794.72;6103078;23;20196;-89
2021/10/03 09:55:31;;;;;;;8.75;4.75;;;17.20;99.90;;;18.19;100.00;98809.53;6101712;23;20094;-89
2021/10/03 09:57:59;;;;;;;6.75;4.68;;;17.20;99.90;;;18.19;100.00;98812.34;6101605;23;20017;-89
2021/10/03 10:00:29;;;;;;;7.70;4.90;;;17.20;99.90;;;18.32;100.00;98813.13;6127754;23;20089;-91
2021/10/03 10:02:55;;;;;;;7.95;4.70;;;17.30;99.90;;;18.26;100.00;98811.31;6126746;23;20006;-90
2021/10/03 10:05:28;;;;;;;7.13;4.50;;;17.20;99.90;;;18.21;100.00;98804.19;6101274;23;20032;-91
2021/10/03 10:07:56;;;;;;;6.00;4.68;;;17.20;99.90;;;18.30;100.00;98806.34;6101580;23;20021;-90
2021/10/03 10:10:23;;;;;;;6.80;5.00;;;17.30;99.90;;;18.22;100.00;98796.53;6102613;23;20014;-90
2021/10/03 10:13:15;;;;;;;7.18;5.18;;;17.30;99.90;;;18.34;100.00;98807.00;6126178;23;20014;-91
2021/10/03 10:15:41;;;;;;;7.13;5.45;;;17.30;99.90;;;18.31;100.00;98808.72;6101724;23;20041;-91
2021/10/03 10:18:26;;;;;;;9.00;4.85;;;17.30;99.90;;;18.32;100.00;98812.34;6125331;23;20082;-90
2021/10/03 10:20:55;;;;;;;7.50;4.65;;;17.40;99.90;;;18.34;100.00;98790.84;6102475;23;20026;-92